Alpena County Regional Airport Alpena US
ICAO: KAPN
IATA: APN
Category: Medium
Scheduled Services: Yes

Elevation: 690 ft
TransAlt. 18000 ft.

Airport Communications:
APP/DEP:128.425
ASOS:120.675
CTAF:121.35
GND:121.9
PTD:37.22
LANSING RDO:108.8
TWR:121.35
UNICOM:122.95

KAPN Zoom In..

If you have problems with the map follow the link
https://www.worldairports.se/pages/airport.php?
ICAO=KAPN

Runways:

(A) RW 01 length 9001 ft width 150 ft
ILS 109.70 / hdg 7

(B) RW 07 length 5028 ft width 100 ft
---- / hdg 67

(C) RW 19 length 9001 ft width 150 ft
---- / hdg 187

(D) RW 25 length 5028 ft width 100 ft
---- / hdg 247

Location; KAPN
Day. 23 / Time. 17.54 Zulu
* Altimeter: 30.12
* Temperature: 07° c. 44.6°f.
* Wind from: 320° Speed 11 kn with Gusts up to 19 kn.
Dewpoint: 01° c.
Visibility: 10 Statute Miles.
Clouds: Broken 3900 ft.
Clouds: Overcast 4700 ft.

KAPN 231754Z AUTO 32011G19KT 10SM BKN039 OVC047 07/01 A3012 RMK AO2 SLP207 60001 T00720006 10078 20056 51013


Wind From 320°
Speed 11 kn.

 
 
jpsmedia.com for Web Design worldairports.se 2018   terms of use